This is the latest recevied weather packets stored in our database for station/object SR9NSK-5. If no packets are shown the sender has not sent any weather packets the latest 1 day(s).
| Time | Temp. | Humidity | Pressure | Rain* | Wind** | Luminosity | Snow |
|---|---|---|---|---|---|---|---|
| 1836274384 | 15° C | 80% | 918.4 hPa | - | 0 m/s | - | - |
| 1836274356 | 14.44° C | 78% | 918.3 hPa | - | 0 m/s | - | - |
| 1836274144 | 15° C | 81% | 918.4 hPa | - | 0 m/s | - | - |
| 1836274114 | 14.44° C | 78% | 918.3 hPa | - | 0 m/s | - | - |
| 1836273904 | 15° C | 82% | 918.4 hPa | - | 0 m/s | - | - |
| 1778024923 | 12.22° C | 54% | 900.2 hPa | - | 0 m/s | - | - |
| 1778024683 | 12.22° C | 54% | 900.3 hPa | - | 0 m/s | - | - |
| 1778024443 | 12.22° C | 53% | 900.3 hPa | - | 0 m/s | - | - |
| 1778024203 | 12.22° C | 53% | 900.4 hPa | - | 0 m/s | - | - |
| 1778023963 | 12.78° C | 53% | 900.5 hPa | - | 0 m/s | - | - |
| 1778023721 | 12.78° C | 53% | 900.3 hPa | - | 0 m/s | - | - |
| 1778023241 | 12.78° C | 52% | 900.6 hPa | - | 0 m/s | - | - |
| 1778023001 | 12.78° C | 52% | 900.6 hPa | - | 0 m/s | - | - |
| 1778022761 | 12.78° C | 52% | 900.7 hPa | - | 0 m/s | - | - |
| 1778022519 | 12.78° C | 51% | 900.6 hPa | - | 0 m/s | - | - |
| 1778022279 | 12.78° C | 51% | 900.6 hPa | - | 0 m/s | - | - |
| 1778022039 | 12.78° C | 51% | 900.5 hPa | - | 0 m/s | - | - |
| 1778021790 | 12.78° C | 51% | 900.4 hPa | - | 0 m/s | - | - |
| 1778021549 | 13.33° C | 51% | 900.6 hPa | - | 0 m/s | - | - |
| 1778021308 | 13.33° C | 51% | 900.5 hPa | - | 0 m/s | - | - |
| 1778021068 | 13.33° C | 51% | 900.5 hPa | - | 0 m/s | - | - |
| 1778020828 | 13.33° C | 51% | 900.6 hPa | - | 0 m/s | - | - |
| 1778020588 | 13.33° C | 51% | 900.6 hPa | - | 0 m/s | - | - |
| 1778020348 | 13.33° C | 51% | 900.7 hPa | - | 0 m/s | - | - |
| 1778020106 | 13.33° C | 51% | 900.8 hPa | - | 0 m/s | - | - |
* Rain since midnight (hover to see other rain measurements)
** Current wind speed in m/s (hover to see current wind gust speed)